Weather reports worldwide

Advertisment
Chamonix, France (7469): temperature & dewpoint: 15.05.2019 05:00:00 - 21.05.2019 05:00:00 (CEST)Chamonix, France (7469): wind speed & gusts: 15.05.2019 05:00:00 - 21.05.2019 05:00:00 (CEST)Chamonix, France (7469): wind direction: 15.05.2019 05:00:00 - 21.05.2019 05:00:00 (CEST)Chamonix, France (7469): precipitation: 15.05.2019 05:00:00 - 21.05.2019 05:00:00 (CEST)
Date & Time tt [°C] td [°C] ff [km/h] ff [kn] fx [km/h] fx [kn] dd rr [mm]
21.05.2019 05:00:00 7,6 7,3 0 0 4 2 N 0,0
21.05.2019 04:00:00 7,8 7,5 0 0 4 2 N 0,0
21.05.2019 03:00:00 7,8 7,4 0 0 2 1 N 0,2
21.05.2019 02:00:00 7,9 7,5 0 0 5 3 N -
21.05.2019 01:00:00 8,1 7,7 0 0 5 3 N 0,0
21.05.2019 00:00:00 8,3 7,7 0 0 8 4 N 0,2
20.05.2019 23:00:00 8,3 7,7 0 0 4 2 N 0,0
20.05.2019 22:00:00 8,4 7,6 0 0 4 2 N 0,0
20.05.2019 21:00:00 8,8 7,7 0 0 9 5 N 0,2
20.05.2019 20:00:00 9,2 8,0 2 1 9 5 SW -
20.05.2019 19:00:00 9,5 7,8 4 2 9 5 S 0,2
20.05.2019 18:00:00 10,0 7,8 4 2 15 8 W 0,0
20.05.2019 17:00:00 10,1 8,2 4 2 13 7 WSW 0,2
20.05.2019 16:00:00 9,9 7,8 5 3 11 6 WSW 0,6
20.05.2019 15:00:00 10,1 8,0 5 3 13 7 WSW 0,4
20.05.2019 14:00:00 9,7 7,8 8 4 18 10 W -
20.05.2019 13:00:00 10,3 7,5 5 3 16 9 SW 0,0
20.05.2019 12:00:00 9,9 8,2 5 3 11 6 W 0,2
20.05.2019 11:00:00 9,0 8,1 0 0 8 4 N 0,4
20.05.2019 10:00:00 8,4 7,8 0 0 5 3 N 0,8
20.05.2019 09:00:00 7,5 7,2 0 0 2 1 N 1,0
20.05.2019 08:00:00 7,1 6,8 0 0 4 2 N -
20.05.2019 07:00:00 6,7 6,4 0 0 4 2 N 0,4
20.05.2019 06:00:00 6,5 6,2 0 0 2 1 N 0,8
20.05.2019 05:00:00 6,6 6,3 0 0 2 1 N 1,0
20.05.2019 04:00:00 6,7 6,3 0 0 4 2 N 0,5
20.05.2019 03:00:00 6,9 6,5 0 0 4 2 N 0,8
20.05.2019 02:00:00 7,0 6,6 0 0 4 2 N -
20.05.2019 01:00:00 7,2 6,6 0 0 2 1 N 0,2
20.05.2019 00:00:00 7,5 6,8 0 0 4 2 N 3,0
19.05.2019 23:00:00 8,2 7,4 0 0 4 2 N 2,0
19.05.2019 22:00:00 8,8 7,9 0 0 5 3 N 0,4
19.05.2019 21:00:00 9,3 8,2 2 1 8 4 SSW 0,2
19.05.2019 20:00:00 9,7 8,5 0 0 5 3 N -
19.05.2019 19:00:00 9,9 8,5 4 2 8 4 WSW 0,2
19.05.2019 18:00:00 10,4 8,5 4 2 8 4 W 0,4
19.05.2019 17:00:00 11,3 8,9 2 1 11 6 WSW 0,6
19.05.2019 16:00:00 11,2 8,4 2 1 15 8 SSW 0,2
19.05.2019 15:00:00 12,2 7,7 8 4 15 8 WSW 0,0
19.05.2019 14:00:00 11,9 7,6 5 3 13 7 SW -
19.05.2019 13:00:00 11,0 6,9 4 2 15 8 SW 0,0
19.05.2019 12:00:00 11,2 6,7 5 3 13 7 SSW 0,0
19.05.2019 11:00:00 10,0 7,2 4 2 13 7 SW 0,0
19.05.2019 10:00:00 9,3 7,1 4 2 9 5 SW 0,0
19.05.2019 09:00:00 8,7 7,0 2 1 5 3 WSW 0,0
19.05.2019 08:00:00 7,9 7,1 2 1 8 4 SSW -
19.05.2019 07:00:00 7,7 7,1 0 0 4 2 N 0,0
19.05.2019 06:00:00 7,4 6,8 0 0 0 0 N 0,0
19.05.2019 05:00:00 7,3 6,7 0 0 4 2 N 0,0
19.05.2019 04:00:00 7,8 7,2 0 0 4 2 N 0,0
19.05.2019 03:00:00 7,8 7,4 0 0 4 2 N 0,0
19.05.2019 02:00:00 7,6 7,0 0 0 2 1 N -
19.05.2019 01:00:00 7,7 6,9 0 0 2 1 N 0,0
19.05.2019 00:00:00 7,8 6,9 0 0 0 0 N 0,0
18.05.2019 23:00:00 7,9 6,8 0 0 4 2 N 0,0
18.05.2019 22:00:00 8,1 6,7 0 0 2 1 N 0,0
18.05.2019 21:00:00 8,9 6,9 0 0 2 1 N 0,0
18.05.2019 20:00:00 9,8 6,7 0 0 2 1 N -
18.05.2019 19:00:00 10,3 6,3 0 0 4 2 N 0,0
18.05.2019 18:00:00 10,3 6,3 0 0 8 4 N 0,0
18.05.2019 17:00:00 10,2 6,2 2 1 8 4 SSE 0,2
18.05.2019 16:00:00 10,0 7,4 2 1 11 6 SW 0,0
18.05.2019 15:00:00 10,1 7,3 5 3 15 8 SW 0,2
18.05.2019 14:00:00 10,0 7,2 5 3 15 8 S -
18.05.2019 13:00:00 9,7 6,4 8 4 18 10 WSW 0,0
18.05.2019 12:00:00 10,9 6,4 4 2 13 7 SW 0,0
18.05.2019 11:00:00 9,6 6,3 5 3 16 9 SSW 0,0
18.05.2019 10:00:00 8,4 6,5 5 3 15 8 SSW 0,0
18.05.2019 09:00:00 7,6 6,5 4 2 11 6 SSW 0,0
18.05.2019 08:00:00 6,7 6,1 0 0 4 2 N -
18.05.2019 07:00:00 6,2 5,8 0 0 4 2 N 0,2
18.05.2019 06:00:00 6,2 5,6 0 0 5 3 N 0,2
18.05.2019 05:00:00 6,3 5,6 0 0 8 4 N 0,2
18.05.2019 04:00:00 6,4 5,7 0 0 4 2 N 0,0
18.05.2019 03:00:00 6,5 5,8 0 0 5 3 N 0,0
18.05.2019 02:00:00 6,5 5,8 2 1 8 4 S -
18.05.2019 01:00:00 6,4 5,5 0 0 8 4 N 0,0
18.05.2019 00:00:00 6,5 5,6 2 1 8 4 S 0,2
17.05.2019 23:00:00 6,5 5,4 0 0 9 5 N 0,0
17.05.2019 22:00:00 6,8 5,7 4 2 8 4 S 0,0
17.05.2019 21:00:00 7,1 5,7 4 2 11 6 SSW 0,0
17.05.2019 20:00:00 7,7 6,0 4 2 11 6 SW -
17.05.2019 19:00:00 9,0 6,1 4 2 18 10 SSW 0,0
17.05.2019 18:00:00 10,4 6,5 5 3 18 10 SSW 0,0
17.05.2019 17:00:00 11,1 6,2 8 4 21 11 WSW 0,0
17.05.2019 16:00:00 11,6 5,5 9 5 21 11 WSW 0,0
17.05.2019 15:00:00 12,6 5,5 8 4 18 10 SW 0,0
17.05.2019 14:00:00 12,8 5,0 5 3 26 14 SW -
17.05.2019 13:00:00 12,5 4,2 15 8 26 14 WSW 0,0
17.05.2019 12:00:00 14,5 1,7 8 4 29 16 NE 0,0
17.05.2019 11:00:00 14,1 1,7 8 4 31 17 NE 0,0
17.05.2019 10:00:00 12,6 1,3 11 6 37 20 NE 0,0
17.05.2019 09:00:00 11,6 1,5 13 7 41 22 NE 0,0
17.05.2019 08:00:00 10,6 1,4 8 4 28 15 NE -
17.05.2019 07:00:00 6,0 3,8 2 1 8 4 SSE 0,0
17.05.2019 06:00:00 4,4 3,2 0 0 8 4 N 0,0
17.05.2019 05:00:00 3,8 2,9 0 0 5 3 N 0,0
17.05.2019 04:00:00 3,6 2,4 0 0 4 2 N 0,0
17.05.2019 03:00:00 4,1 2,8 0 0 4 2 N 0,0
17.05.2019 02:00:00 4,0 2,5 0 0 4 2 N -
17.05.2019 01:00:00 4,2 2,4 0 0 4 2 N 0,0
17.05.2019 00:00:00 4,9 2,6 0 0 4 2 N 0,0
16.05.2019 23:00:00 6,5 2,9 0 0 4 2 N 0,0
16.05.2019 22:00:00 9,3 2,8 0 0 15 8 N 0,0
16.05.2019 21:00:00 12,4 2,8 8 4 18 10 WSW 0,0
16.05.2019 20:00:00 13,6 2,8 5 3 21 11 SSW -
16.05.2019 19:00:00 14,9 1,8 8 4 21 11 SSW 0,0
16.05.2019 18:00:00 17,0 0,6 9 5 26 14 WSW 0,0
16.05.2019 17:00:00 16,9 -0,8 9 5 26 14 WNW 0,0
16.05.2019 16:00:00 17,4 1,4 8 4 29 16 SW 0,0
16.05.2019 15:00:00 17,5 2,3 9 5 22 12 SW 0,0
16.05.2019 14:00:00 16,9 1,7 8 4 22 12 SW -
16.05.2019 13:00:00 16,0 2,0 8 4 22 12 SSW 0,0
16.05.2019 12:00:00 13,9 2,1 9 5 21 11 W 0,0
16.05.2019 11:00:00 12,1 2,3 5 3 13 7 SSW 0,0
16.05.2019 10:00:00 7,8 2,0 0 0 8 4 N 0,0
16.05.2019 09:00:00 2,6 2,3 2 1 5 3 S 0,0
16.05.2019 08:00:00 -0,1 -0,5 0 0 5 3 N -
16.05.2019 07:00:00 -0,5 -1,1 2 1 5 3 NE 0,0
16.05.2019 06:00:00 -0,2 -0,8 2 1 9 5 ENE 0,0
16.05.2019 05:00:00 -0,1 -0,8 2 1 8 4 NW 0,0
16.05.2019 04:00:00 0,3 -0,6 0 0 4 2 N 0,0
16.05.2019 03:00:00 1,0 0,0 0 0 8 4 N 0,0
16.05.2019 02:00:00 1,5 0,2 0 0 2 1 N -
16.05.2019 01:00:00 2,2 0,4 2 1 4 2 N 0,0
16.05.2019 00:00:00 3,4 0,8 0 0 4 2 N 0,0
15.05.2019 23:00:00 5,5 0,5 0 0 11 6 N 0,0
15.05.2019 22:00:00 7,9 1,1 4 2 18 10 W 0,0
15.05.2019 21:00:00 10,0 0,8 5 3 18 10 SW 0,0
15.05.2019 20:00:00 11,3 0,7 8 4 29 16 S -
15.05.2019 19:00:00 12,5 0,6 8 4 34 18 SSW 0,0
15.05.2019 18:00:00 16,4 0,5 9 5 26 14 SSW 0,0
15.05.2019 17:00:00 16,6 -1,5 8 4 24 13 SSW 0,0
15.05.2019 16:00:00 15,7 -2,3 8 4 22 12 SW 0,0
15.05.2019 15:00:00 15,9 -3,6 8 4 22 12 WSW 0,0
15.05.2019 14:00:00 13,6 -5,6 9 5 21 11 WSW -
15.05.2019 13:00:00 13,6 -4,1 8 4 22 12 SSW 0,0
15.05.2019 12:00:00 11,1 -8,2 9 5 21 11 NNW 0,0
15.05.2019 11:00:00 10,0 -8,7 9 5 26 14 N 0,0
15.05.2019 10:00:00 8,1 -7,6 9 5 29 16 E 0,0
15.05.2019 09:00:00 4,7 -7,5 2 1 11 6 W 0,0
15.05.2019 08:00:00 1,8 -2,9 4 2 22 12 S -
15.05.2019 07:00:00 2,8 -6,4 8 4 22 12 E 0,0
15.05.2019 06:00:00 1,3 -2,6 2 1 18 10 S 0,0
15.05.2019 05:00:00 3,0 -5,9 5 3 29 16 N 0,0

tt = temperature
td = dewpoint
ff = wind speed
fx = gusts
dd = wind direction
rr = precipitation

Next stations